Time;durP1;ratioP1;P1;durP2;ratioP2;P2;SDS_P1;SDS_P2;PMS_P1;PMS_P2;Temp;Humidity;BMP_temperature;BMP_pressure;BME280_temperature;BME280_humidity;BME280_pressure;Samples;Min_cycle;Max_cycle;Signal;HPM_P1;HPM_P2
2023/03/05 00:00:08;;;;;;;17.87;10.43;;;4.60;95.40;;;;;;5091904;28;20594;-73
2023/03/05 00:02:34;;;;;;;14.43;10.27;;;4.60;95.50;;;;;;5091646;28;20228;-73
2023/03/05 00:05:00;;;;;;;17.30;10.30;;;4.60;95.50;;;;;;5091365;28;20176;-73
2023/03/05 00:07:25;;;;;;;13.67;9.90;;;4.50;95.40;;;;;;5092088;28;20541;-77
2023/03/05 00:09:51;;;;;;;17.17;10.80;;;4.40;95.60;;;;;;5092504;28;20186;-75
2023/03/05 00:12:17;;;;;;;18.80;10.73;;;4.50;95.50;;;;;;5097725;28;20162;-74
2023/03/05 00:14:43;;;;;;;15.07;10.00;;;4.40;95.60;;;;;;5095748;28;20267;-74
2023/03/05 00:17:09;;;;;;;15.90;10.63;;;4.30;95.70;;;;;;5092991;28;20262;-80
2023/03/05 00:19:34;;;;;;;15.67;10.00;;;4.30;95.70;;;;;;5090307;28;20325;-75
2023/03/05 00:22:00;;;;;;;18.43;11.23;;;4.30;95.60;;;;;;5091440;28;20175;-72
2023/03/05 00:24:26;;;;;;;15.63;10.27;;;4.20;95.60;;;;;;5091341;28;20174;-71
2023/03/05 00:26:52;;;;;;;17.27;10.43;;;4.20;95.60;;;;;;5092219;28;20182;-73
2023/03/05 00:29:23;;;;;;;15.73;10.20;;;4.20;95.80;;;;;;5092693;28;20177;-72
2023/03/05 00:31:49;;;;;;;14.20;9.27;;;4.20;95.90;;;;;;5098917;28;20167;-80
2023/03/05 00:34:17;;;;;;;17.83;10.10;;;4.20;95.80;;;;;;5091800;28;20186;-80
2023/03/05 00:36:45;;;;;;;13.57;9.37;;;4.20;95.80;;;;;;5091556;28;20615;-75
2023/03/05 00:39:12;;;;;;;16.90;10.90;;;4.20;95.80;;;;;;5091136;28;20186;-81
2023/03/05 00:41:38;;;;;;;16.30;9.77;;;4.10;95.70;;;;;;5091545;28;20548;-78
2023/03/05 00:44:04;;;;;;;14.23;10.50;;;4.10;95.80;;;;;;5091358;28;20238;-75
2023/03/05 00:46:29;;;;;;;16.27;10.50;;;4.10;96.20;;;;;;5092855;28;20534;-81
2023/03/05 00:48:56;;;;;;;15.80;9.03;;;4.10;96.10;;;;;;5092404;28;20173;-75
2023/03/05 00:51:23;;;;;;;17.90;10.37;;;4.20;96.00;;;;;;5093047;28;20171;-78
2023/03/05 00:53:49;;;;;;;14.47;9.40;;;4.20;95.90;;;;;;5093434;28;20568;-75
2023/03/05 00:56:15;;;;;;;14.37;10.00;;;4.10;95.90;;;;;;5093390;28;20185;-73
2023/03/05 00:58:41;;;;;;;15.30;9.90;;;4.10;95.90;;;;;;5077092;28;20175;-78
2023/03/05 01:01:07;;;;;;;14.97;10.00;;;3.90;96.00;;;;;;5071768;28;20179;-77
2023/03/05 01:03:34;;;;;;;16.37;9.87;;;3.90;96.20;;;;;;5074881;28;20226;-76
2023/03/05 01:06:03;;;;;;;13.30;8.47;;;3.80;96.30;;;;;;5074817;28;20167;-75
2023/03/05 01:08:29;;;;;;;13.73;9.77;;;3.80;96.40;;;;;;5074889;28;20298;-75
2023/03/05 01:10:54;;;;;;;14.53;9.43;;;3.80;96.10;;;;;;5073071;28;20217;-73
2023/03/05 01:13:20;;;;;;;15.77;9.87;;;3.70;96.60;;;;;;5074200;28;20570;-77
2023/03/05 01:15:47;;;;;;;14.20;9.57;;;3.70;96.60;;;;;;5072956;28;20190;-78
2023/03/05 01:18:13;;;;;;;16.53;9.67;;;3.70;96.70;;;;;;5072360;28;20182;-75
2023/03/05 01:20:39;;;;;;;15.83;9.73;;;3.70;96.80;;;;;;5073831;28;20181;-80
2023/03/05 01:23:05;;;;;;;14.13;9.50;;;3.70;96.80;;;;;;5074905;28;20202;-77
2023/03/05 01:25:31;;;;;;;15.97;10.20;;;3.60;96.90;;;;;;5074290;28;20178;-76
2023/03/05 01:27:57;;;;;;;16.10;10.63;;;3.60;96.90;;;;;;5076048;28;20180;-77
2023/03/05 01:30:22;;;;;;;17.50;10.83;;;3.60;96.80;;;;;;5074331;28;20247;-78
2023/03/05 01:32:48;;;;;;;18.70;10.60;;;3.70;96.80;;;;;;5074405;28;20174;-77
2023/03/05 01:35:20;;;;;;;16.63;10.47;;;3.60;97.00;;;;;;5073744;28;20170;-73
2023/03/05 01:37:47;;;;;;;19.50;10.77;;;3.50;97.10;;;;;;5074105;28;20300;-76
2023/03/05 01:40:16;;;;;;;14.30;9.27;;;3.60;97.10;;;;;;5073600;28;20174;-77
2023/03/05 01:42:46;;;;;;;14.67;9.90;;;3.60;97.10;;;;;;5073825;28;20273;-74
2023/03/05 01:45:15;;;;;;;16.93;10.57;;;3.50;97.30;;;;;;5073779;28;20652;-76
2023/03/05 01:47:42;;;;;;;17.10;10.20;;;3.40;97.50;;;;;;5074221;28;20227;-73
2023/03/05 01:50:12;;;;;;;14.53;9.37;;;3.40;97.70;;;;;;5074162;28;20933;-71
2023/03/05 01:52:44;;;;;;;14.60;9.63;;;3.50;97.60;;;;;;5074090;28;20174;-77
2023/03/05 01:55:21;;;;;;;17.63;10.10;;;3.50;97.60;;;;;;5073708;28;20620;-76
2023/03/05 01:58:03;;;;;;;18.33;9.83;;;3.40;97.70;;;;;;5072880;28;20272;-74
2023/03/05 02:00:34;;;;;;;14.83;9.93;;;3.40;97.90;;;;;;5072793;28;20657;-73
2023/03/05 02:03:03;;;;;;;16.40;10.13;;;3.30;97.80;;;;;;5075686;28;20252;-75
2023/03/05 02:05:32;;;;;;;14.50;8.63;;;3.10;98.00;;;;;;5082764;28;20187;-72
2023/03/05 02:08:00;;;;;;;14.87;9.30;;;3.20;98.20;;;;;;5080500;28;20185;-75
2023/03/05 02:10:29;;;;;;;12.63;8.97;;;3.20;98.10;;;;;;5081058;28;20207;-78
2023/03/05 02:12:59;;;;;;;16.50;9.87;;;3.20;98.20;;;;;;5078796;28;20179;-79
2023/03/05 02:15:25;;;;;;;14.77;9.63;;;3.20;98.10;;;;;;5072196;28;20201;-76
2023/03/05 02:17:51;;;;;;;15.87;9.33;;;3.20;98.20;;;;;;5073171;28;20178;-82
2023/03/05 02:20:22;;;;;;;13.77;9.00;;;3.10;98.30;;;;;;5071490;28;20622;-81
2023/03/05 02:22:48;;;;;;;12.63;9.33;;;3.10;98.30;;;;;;5073439;28;20233;-81
2023/03/05 02:25:23;;;;;;;14.27;9.40;;;3.10;98.40;;;;;;5073187;28;20166;-75
2023/03/05 02:28:10;;;;;;;17.27;9.17;;;3.10;98.40;;;;;;5073294;28;20164;-81
2023/03/05 02:30:37;;;;;;;14.73;9.37;;;3.10;98.30;;;;;;5071974;28;20260;-77
2023/03/05 02:33:03;;;;;;;15.93;9.23;;;3.00;98.40;;;;;;5073329;28;20167;-77
2023/03/05 02:35:29;;;;;;;13.37;9.37;;;3.20;98.30;;;;;;5072717;28;20182;-73
2023/03/05 02:37:55;;;;;;;13.87;9.63;;;3.30;98.10;;;;;;5072797;28;20218;-76
2023/03/05 02:40:21;;;;;;;14.93;8.70;;;3.20;98.30;;;;;;5071127;28;20182;-75
2023/03/05 02:42:47;;;;;;;13.73;9.10;;;3.20;98.30;;;;;;5072489;28;20221;-77
2023/03/05 02:45:13;;;;;;;13.00;9.07;;;3.10;98.50;;;;;;5071451;28;20178;-74
2023/03/05 02:47:39;;;;;;;12.67;9.17;;;3.00;98.60;;;;;;5072768;28;20306;-74
2023/03/05 02:50:06;;;;;;;13.33;9.13;;;3.00;98.60;;;;;;5073118;28;20508;-78
2023/03/05 02:52:32;;;;;;;13.40;8.73;;;2.90;98.60;;;;;;5073255;28;20516;-75
2023/03/05 02:54:58;;;;;;;16.87;9.80;;;3.00;98.70;;;;;;5073170;28;20239;-76
2023/03/05 02:57:23;;;;;;;12.70;9.50;;;3.10;98.50;;;;;;5073664;28;20223;-74
2023/03/05 02:59:49;;;;;;;17.30;9.53;;;2.90;98.40;;;;;;5074225;28;20185;-72
2023/03/05 03:02:15;;;;;;;13.13;9.27;;;2.80;98.30;;;;;;5074750;28;20187;-79
2023/03/05 03:04:42;;;;;;;15.87;9.60;;;2.70;98.50;;;;;;5073114;28;20193;-78
2023/03/05 03:07:09;;;;;;;17.27;9.27;;;2.70;98.40;;;;;;5072616;28;20757;-75
2023/03/05 03:09:35;;;;;;;12.97;8.40;;;2.80;98.50;;;;;;5071067;28;20200;-77
2023/03/05 03:12:02;;;;;;;14.47;8.77;;;2.70;98.40;;;;;;5072630;28;20175;-76
2023/03/05 03:14:31;;;;;;;12.43;8.53;;;2.70;98.40;;;;;;5072327;28;20258;-73
2023/03/05 03:16:57;;;;;;;15.00;9.37;;;2.70;98.40;;;;;;5070337;28;20277;-75
2023/03/05 03:19:23;;;;;;;13.70;8.57;;;2.70;98.50;;;;;;5071939;28;20223;-74
2023/03/05 03:21:49;;;;;;;14.00;9.30;;;2.70;98.50;;;;;;5071681;28;20538;-75
2023/03/05 03:24:15;;;;;;;14.97;9.33;;;2.70;98.60;;;;;;5071666;28;20795;-76
2023/03/05 03:26:40;;;;;;;15.50;9.30;;;2.50;98.40;;;;;;5071022;28;20189;-80
2023/03/05 03:29:06;;;;;;;13.60;9.07;;;2.40;98.60;;;;;;5072266;28;20258;-75
2023/03/05 03:31:32;;;;;;;12.43;9.00;;;2.40;98.50;;;;;;5071070;28;20320;-78
2023/03/05 03:33:58;;;;;;;15.93;9.40;;;2.30;98.50;;;;;;5071827;28;20190;-74
2023/03/05 03:36:23;;;;;;;16.37;9.30;;;2.30;98.60;;;;;;5070978;28;20264;-77
2023/03/05 03:38:49;;;;;;;16.30;9.67;;;2.30;98.50;;;;;;5072309;28;20700;-73
2023/03/05 03:41:15;;;;;;;14.53;9.40;;;2.20;98.60;;;;;;5077119;28;20196;-73
2023/03/05 03:43:41;;;;;;;14.67;8.93;;;2.20;98.60;;;;;;5074076;28;20261;-75
2023/03/05 03:46:07;;;;;;;11.57;7.90;;;2.30;98.50;;;;;;5072865;28;20250;-78
2023/03/05 03:48:33;;;;;;;15.37;9.50;;;2.20;98.60;;;;;;5072321;28;21004;-76
2023/03/05 03:50:58;;;;;;;14.87;8.80;;;2.10;98.70;;;;;;5072342;28;20573;-76
2023/03/05 03:53:24;;;;;;;14.37;9.50;;;1.90;98.70;;;;;;5072062;28;20170;-77
2023/03/05 03:55:50;;;;;;;13.57;8.93;;;2.00;98.90;;;;;;5071983;28;20276;-75
2023/03/05 03:58:15;;;;;;;14.03;9.47;;;1.90;98.90;;;;;;5072660;28;20179;-79
2023/03/05 04:00:41;;;;;;;15.67;9.67;;;2.00;98.90;;;;;;5066056;28;20177;-73
2023/03/05 04:03:08;;;;;;;18.17;9.37;;;1.90;99.00;;;;;;5066850;28;20305;-79
2023/03/05 04:05:33;;;;;;;14.57;8.13;;;1.90;99.10;;;;;;5078152;28;20182;-79
2023/03/05 04:08:00;;;;;;;16.33;9.83;;;2.00;99.00;;;;;;5077771;28;20228;-79
2023/03/05 04:10:26;;;;;;;12.87;9.10;;;1.90;98.90;;;;;;5073355;28;20184;-80
2023/03/05 04:12:52;;;;;;;15.70;8.83;;;1.90;99.10;;;;;;5072080;28;20174;-81
2023/03/05 04:15:18;;;;;;;13.57;9.40;;;1.90;99.00;;;;;;5072037;28;20644;-78
2023/03/05 04:17:43;;;;;;;12.33;8.77;;;1.80;99.10;;;;;;5070210;28;20178;-73
2023/03/05 04:20:10;;;;;;;13.57;8.60;;;1.80;99.30;;;;;;5072145;28;20174;-78
2023/03/05 04:22:37;;;;;;;14.40;9.03;;;1.90;99.10;;;;;;5071419;28;20199;-79
2023/03/05 04:25:07;;;;;;;12.47;8.57;;;1.90;99.10;;;;;;5070302;28;20174;-76
2023/03/05 04:27:34;;;;;;;14.67;9.63;;;1.90;99.00;;;;;;5071880;28;20182;-78
2023/03/05 04:30:00;;;;;;;12.83;8.77;;;1.90;99.10;;;;;;5071408;28;20259;-79
2023/03/05 04:32:28;;;;;;;15.03;9.63;;;1.80;99.10;;;;;;5071759;28;20622;-76
2023/03/05 04:34:55;;;;;;;14.43;8.90;;;1.80;99.10;;;;;;5069810;28;20260;-74
2023/03/05 04:37:21;;;;;;;16.00;9.10;;;1.90;99.10;;;;;;5073734;28;20183;-75
2023/03/05 04:39:46;;;;;;;12.10;8.87;;;1.80;99.10;;;;;;5075374;28;20170;-74
2023/03/05 04:42:12;;;;;;;14.27;9.10;;;1.80;99.10;;;;;;5075732;28;20231;-79
2023/03/05 04:44:38;;;;;;;14.97;9.40;;;1.80;99.30;;;;;;5075563;28;20639;-79
2023/03/05 04:47:04;;;;;;;15.57;9.20;;;1.80;99.10;;;;;;5076104;28;20175;-74
2023/03/05 04:49:30;;;;;;;13.57;8.77;;;1.80;99.10;;;;;;5075377;28;20258;-77
2023/03/05 04:51:56;;;;;;;16.53;9.53;;;1.70;99.10;;;;;;5074362;28;20189;-76
2023/03/05 04:54:23;;;;;;;18.47;9.87;;;1.60;99.30;;;;;;5075176;28;20177;-74
2023/03/05 04:56:49;;;;;;;14.50;9.07;;;1.60;99.30;;;;;;5074223;28;20187;-76
2023/03/05 04:59:15;;;;;;;15.20;9.13;;;1.50;99.30;;;;;;5075950;28;20185;-74
2023/03/05 05:01:41;;;;;;;16.30;9.40;;;1.60;99.40;;;;;;5076837;28;20217;-73
2023/03/05 05:04:08;;;;;;;16.13;9.47;;;1.60;99.50;;;;;;5077860;28;20222;-76
2023/03/05 05:06:33;;;;;;;15.00;8.67;;;1.70;99.20;;;;;;5075903;28;20189;-74
2023/03/05 05:08:59;;;;;;;12.57;9.07;;;1.50;99.20;;;;;;5075122;28;20175;-74
2023/03/05 05:11:25;;;;;;;17.57;9.47;;;1.40;99.40;;;;;;5075600;28;20170;-75
2023/03/05 05:13:51;;;;;;;15.03;8.83;;;1.40;99.60;;;;;;5074336;28;20950;-72
2023/03/05 05:16:16;;;;;;;14.63;9.13;;;1.40;99.60;;;;;;5078346;28;20181;-75
2023/03/05 05:18:42;;;;;;;16.67;9.17;;;1.40;99.60;;;;;;5081365;28;20239;-80
2023/03/05 05:21:10;;;;;;;14.40;8.83;;;1.40;99.70;;;;;;5075559;28;20253;-80
2023/03/05 05:23:35;;;;;;;14.20;9.47;;;1.40;99.80;;;;;;5074948;28;20217;-75
2023/03/05 05:26:04;;;;;;;12.77;8.17;;;1.40;99.70;;;;;;5074894;28;20258;-78
2023/03/05 05:28:30;;;;;;;16.07;9.23;;;1.30;99.60;;;;;;5073289;28;20212;-80
2023/03/05 05:30:56;;;;;;;16.27;8.63;;;1.30;99.70;;;;;;5074736;28;20641;-78
2023/03/05 05:33:22;;;;;;;14.70;9.07;;;1.20;99.80;;;;;;5073985;28;20211;-73
2023/03/05 05:35:48;;;;;;;14.70;9.27;;;1.30;99.90;;;;;;5074321;28;20171;-76
2023/03/05 05:38:14;;;;;;;13.83;9.23;;;1.20;99.90;;;;;;5072967;28;20637;-79
2023/03/05 05:40:40;;;;;;;17.30;9.77;;;1.10;99.90;;;;;;5074373;28;20171;-76
2023/03/05 05:43:06;;;;;;;15.23;8.87;;;1.20;99.90;;;;;;5074443;28;20236;-78
2023/03/05 05:45:32;;;;;;;13.20;8.60;;;1.20;99.90;;;;;;5074474;28;20168;-74
2023/03/05 05:47:57;;;;;;;13.87;9.60;;;1.20;99.90;;;;;;5073224;28;20206;-77
2023/03/05 05:50:24;;;;;;;13.97;8.93;;;1.20;99.90;;;;;;5074207;28;20170;-78
2023/03/05 05:52:52;;;;;;;15.70;9.53;;;1.20;99.90;;;;;;5073779;28;20235;-80
2023/03/05 05:55:18;;;;;;;14.50;9.43;;;1.20;99.90;;;;;;5073845;28;20205;-75
2023/03/05 05:57:44;;;;;;;12.43;9.00;;;1.10;99.90;;;;;;5073606;28;20635;-78
2023/03/05 06:00:13;;;;;;;12.93;8.23;;;1.10;99.90;;;;;;5079007;28;20190;-73
2023/03/05 06:02:40;;;;;;;13.33;8.43;;;1.10;99.90;;;;;;5081198;28;20210;-76
2023/03/05 06:05:07;;;;;;;16.97;9.90;;;1.10;99.90;;;;;;5074097;28;20184;-72
2023/03/05 06:07:36;;;;;;;18.33;9.53;;;1.20;99.90;;;;;;5073838;28;20186;-78
2023/03/05 06:10:02;;;;;;;15.87;9.00;;;1.30;99.90;;;;;;5073714;28;20227;-74
2023/03/05 06:12:28;;;;;;;19.83;10.90;;;1.30;99.90;;;;;;5072671;28;20606;-78
2023/03/05 06:14:54;;;;;;;18.53;10.90;;;1.30;99.90;;;;;;5073223;28;20257;-75
2023/03/05 06:17:19;;;;;;;16.20;9.63;;;1.40;99.90;;;;;;5073187;28;20178;-76
2023/03/05 06:19:45;;;;;;;18.83;10.00;;;1.40;99.90;;;;;;5073309;28;20220;-76
2023/03/05 06:22:11;;;;;;;15.17;9.70;;;1.40;99.90;;;;;;5073320;28;20195;-80
2023/03/05 06:24:37;;;;;;;15.03;9.27;;;1.40;99.90;;;;;;5073025;28;20209;-77
2023/03/05 06:27:04;;;;;;;15.27;9.50;;;1.50;99.90;;;;;;5071890;28;20201;-76
2023/03/05 06:29:30;;;;;;;13.67;9.27;;;1.60;99.90;;;;;;5073335;28;20182;-78
2023/03/05 06:31:56;;;;;;;17.83;8.97;;;1.70;99.90;;;;;;5072995;28;20174;-77
2023/03/05 06:34:22;;;;;;;15.87;10.33;;;1.70;99.90;;;;;;5072967;28;20224;-75
2023/03/05 06:36:48;;;;;;;14.43;9.30;;;1.80;99.90;;;;;;5072958;28;20514;-75
2023/03/05 06:39:13;;;;;;;16.30;9.73;;;1.90;99.90;;;;;;5072831;28;20244;-76
2023/03/05 06:41:39;;;;;;;20.80;9.83;;;1.90;99.90;;;;;;5073233;28;20178;-74
2023/03/05 06:44:05;;;;;;;13.77;9.00;;;1.90;99.90;;;;;;5072606;28;20278;-73
2023/03/05 06:46:34;;;;;;;15.87;9.47;;;2.00;99.60;;;;;;5072920;28;20630;-74
2023/03/05 06:49:01;;;;;;;14.43;9.53;;;2.00;99.60;;;;;;5071465;28;20538;-74
2023/03/05 06:51:33;;;;;;;14.43;10.07;;;2.00;99.60;;;;;;5074538;28;20175;-75
2023/03/05 06:54:07;;;;;;;18.20;10.23;;;2.00;99.60;;;;;;5083065;28;20223;-82
2023/03/05 06:56:35;;;;;;;12.97;8.93;;;2.00;99.80;;;;;;5072586;28;20183;-76
2023/03/05 06:59:01;;;;;;;15.13;9.83;;;2.00;99.90;;;;;;5073572;28;20183;-78
2023/03/05 07:01:27;;;;;;;16.13;9.80;;;2.10;99.90;;;;;;5074273;28;20171;-77
2023/03/05 07:03:54;;;;;;;18.00;9.57;;;2.20;99.90;;;;;;5073491;28;20224;-73
2023/03/05 07:06:21;;;;;;;17.70;9.77;;;2.30;99.90;;;;;;5074136;28;20174;-75
2023/03/05 07:08:47;;;;;;;16.37;9.03;;;2.40;99.90;;;;;;5082132;28;20193;-76
2023/03/05 07:11:15;;;;;;;16.40;9.30;;;2.40;99.90;;;;;;5081836;28;20173;-74
2023/03/05 07:13:42;;;;;;;15.97;10.13;;;2.50;99.90;;;;;;5073158;28;20181;-72
2023/03/05 07:16:12;;;;;;;14.13;9.63;;;2.70;99.80;;;;;;5073390;28;20192;-72
2023/03/05 07:18:37;;;;;;;13.03;8.37;;;2.70;99.70;;;;;;5071340;28;20213;-74
2023/03/05 07:21:07;;;;;;;16.63;10.80;;;2.80;99.70;;;;;;5070857;28;20190;-74
2023/03/05 07:23:34;;;;;;;16.23;10.07;;;2.90;99.50;;;;;;5072430;28;20229;-73
2023/03/05 07:26:05;;;;;;;18.13;9.07;;;2.90;99.50;;;;;;5072279;28;20171;-71
2023/03/05 07:28:32;;;;;;;13.93;8.83;;;3.00;99.50;;;;;;5072467;28;20174;-76
2023/03/05 07:31:00;;;;;;;16.17;9.73;;;3.10;99.40;;;;;;5071721;28;20174;-74
2023/03/05 07:33:26;;;;;;;14.03;8.87;;;3.20;99.30;;;;;;5071646;28;20203;-74
2023/03/05 07:35:53;;;;;;;14.10;10.27;;;3.20;99.30;;;;;;5072628;28;20535;-77
2023/03/05 07:38:19;;;;;;;15.00;9.93;;;3.30;99.40;;;;;;5072208;28;20193;-77
2023/03/05 07:40:44;;;;;;;14.53;9.97;;;3.30;99.30;;;;;;5071300;28;20175;-77
2023/03/05 07:43:10;;;;;;;14.83;9.77;;;3.40;99.30;;;;;;5071752;28;20229;-75
2023/03/05 07:45:43;;;;;;;16.23;9.23;;;3.60;99.10;;;;;;5071884;28;20530;-73
2023/03/05 07:48:14;;;;;;;14.87;10.23;;;3.60;99.00;;;;;;5071808;28;20216;-76
2023/03/05 07:50:40;;;;;;;17.33;9.50;;;3.70;99.00;;;;;;5072000;28;20154;-74
2023/03/05 07:53:07;;;;;;;16.07;9.57;;;3.80;98.90;;;;;;5072069;28;20640;-71
2023/03/05 07:55:33;;;;;;;16.90;9.90;;;3.90;98.70;;;;;;5072889;28;20211;-77
2023/03/05 07:58:00;;;;;;;14.83;9.83;;;3.90;98.70;;;;;;5077053;28;20181;-74
2023/03/05 08:00:25;;;;;;;18.63;10.80;;;3.90;99.00;;;;;;5072159;28;20174;-73
2023/03/05 08:02:51;;;;;;;16.47;9.93;;;4.10;99.20;;;;;;5072185;28;20203;-77
2023/03/05 08:05:17;;;;;;;15.70;10.33;;;4.20;98.70;;;;;;5071428;28;20488;-73
2023/03/05 08:07:43;;;;;;;15.30;10.43;;;4.20;99.10;;;;;;5071713;28;20187;-73
2023/03/05 08:10:09;;;;;;;19.77;10.97;;;4.20;99.40;;;;;;5070945;28;20200;-75
2023/03/05 08:12:35;;;;;;;16.63;10.23;;;4.30;99.10;;;;;;5076713;28;20214;-75
2023/03/05 08:15:01;;;;;;;18.13;10.20;;;4.40;99.90;;;;;;5078122;28;20187;-72
2023/03/05 08:17:26;;;;;;;17.57;10.27;;;4.50;99.90;;;;;;5078469;28;20666;-79
2023/03/05 08:19:56;;;;;;;16.03;10.93;;;4.70;99.90;;;;;;5078490;28;20177;-72
2023/03/05 08:22:22;;;;;;;17.20;10.70;;;4.80;99.80;;;;;;5077811;28;20175;-72
2023/03/05 08:24:49;;;;;;;14.90;10.50;;;4.80;99.70;;;;;;5078122;28;20176;-78
2023/03/05 08:27:15;;;;;;;17.57;10.90;;;4.80;99.50;;;;;;5111606;28;20171;-74
2023/03/05 08:29:40;;;;;;;15.90;11.37;;;4.90;99.50;;;;;;5087650;28;20175;-73
2023/03/05 08:32:06;;;;;;;17.77;11.20;;;5.00;99.60;;;;;;5079891;28;20247;-80
2023/03/05 08:34:32;;;;;;;16.67;11.33;;;5.10;98.90;;;;;;5079180;28;20179;-78
2023/03/05 08:36:58;;;;;;;20.13;11.40;;;5.20;98.60;;;;;;5079092;28;20208;-80
2023/03/05 08:39:23;;;;;;;16.33;11.23;;;5.30;98.60;;;;;;5078432;28;20171;-78
2023/03/05 08:41:49;;;;;;;18.63;12.37;;;5.30;98.40;;;;;;5078102;28;20187;-82
2023/03/05 08:44:15;;;;;;;18.87;10.70;;;5.30;99.20;;;;;;5077869;28;20280;-80
2023/03/05 08:46:41;;;;;;;19.67;11.30;;;5.30;99.40;;;;;;5078331;28;20251;-76
2023/03/05 08:49:07;;;;;;;18.60;11.17;;;5.40;98.10;;;;;;5078465;28;20575;-76
2023/03/05 08:51:34;;;;;;;17.00;11.10;;;5.40;98.10;;;;;;5078084;28;20242;-73
2023/03/05 08:54:01;;;;;;;21.53;11.83;;;5.40;99.00;;;;;;5076046;28;20238;-78
2023/03/05 08:56:29;;;;;;;23.60;11.03;;;5.60;98.30;;;;;;5075644;28;20190;-78
2023/03/05 08:58:56;;;;;;;17.23;11.57;;;5.60;98.20;;;;;;5078442;28;20176;-73
2023/03/05 09:01:22;;;;;;;17.93;11.53;;;5.60;98.60;;;;;;5079951;28;20176;-78
2023/03/05 09:03:48;;;;;;;17.03;11.73;;;5.60;98.60;;;;;;5077216;28;20238;-78
2023/03/05 09:06:14;;;;;;;19.57;10.17;;;5.70;98.60;;;;;;5078823;28;20216;-75
2023/03/05 09:08:40;;;;;;;20.00;11.20;;;5.70;98.50;;;;;;5083510;28;20179;-79
2023/03/05 09:11:08;;;;;;;12.70;10.00;;;5.90;98.10;;;;;;5091939;28;20170;-79
2023/03/05 09:13:35;;;;;;;15.20;10.90;;;5.90;98.00;;;;;;5078647;28;20232;-76
2023/03/05 09:16:04;;;;;;;15.47;9.90;;;6.00;97.80;;;;;;5084996;28;20172;-84
2023/03/05 09:18:31;;;;;;;14.13;9.90;;;6.20;97.80;;;;;;5099161;28;20167;-75
2023/03/05 09:20:57;;;;;;;13.53;9.43;;;6.30;97.60;;;;;;5082496;28;20187;-75
2023/03/05 09:23:23;;;;;;;16.13;10.37;;;6.50;97.10;;;;;;5075925;28;20217;-74
2023/03/05 09:25:49;;;;;;;15.03;9.83;;;6.60;96.80;;;;;;5087985;28;20506;-74
2023/03/05 09:28:15;;;;;;;14.67;9.80;;;6.60;97.10;;;;;;5091930;28;20182;-72
2023/03/05 09:30:41;;;;;;;15.57;9.93;;;6.60;96.80;;;;;;5074701;28;20243;-75
2023/03/05 09:33:07;;;;;;;14.83;9.90;;;6.70;96.50;;;;;;5074643;28;20228;-80
2023/03/05 09:35:36;;;;;;;13.43;9.50;;;6.80;96.40;;;;;;5074591;28;20214;-75
2023/03/05 09:38:03;;;;;;;14.37;9.73;;;6.90;96.30;;;;;;5074693;28;20178;-79
2023/03/05 09:40:43;;;;;;;15.50;9.83;;;6.90;96.40;;;;;;5074387;28;20176;-77
2023/03/05 09:43:20;;;;;;;11.43;8.40;;;7.10;96.50;;;;;;5090403;28;20661;-78
2023/03/05 09:46:21;;;;;;;15.60;10.27;;;7.10;96.30;;;;;;5074350;28;20199;-77
2023/03/05 09:48:51;;;;;;;15.27;9.63;;;7.30;96.30;;;;;;5073908;28;20180;-73
2023/03/05 09:51:23;;;;;;;12.40;9.67;;;7.50;96.10;;;;;;5074741;28;20174;-73
2023/03/05 09:53:58;;;;;;;17.27;10.37;;;7.60;95.80;;;;;;5075040;28;20174;-76
2023/03/05 09:56:37;;;;;;;14.33;10.03;;;7.70;95.80;;;;;;5074621;28;20242;-73
2023/03/05 09:59:16;;;;;;;14.03;9.80;;;7.80;95.70;;;;;;5074182;28;20244;-71
2023/03/05 10:01:43;;;;;;;17.70;10.30;;;7.80;95.80;;;;;;5076030;28;20171;-76
2023/03/05 10:04:40;;;;;;;14.97;10.40;;;7.90;95.90;;;;;;5081460;28;20209;-73
2023/03/05 10:07:27;;;;;;;14.10;10.13;;;7.90;96.00;;;;;;5091431;28;20193;-79
2023/03/05 10:09:56;;;;;;;15.13;9.80;;;7.90;95.90;;;;;;5094930;28;20176;-77
2023/03/05 10:12:41;;;;;;;14.90;9.80;;;8.00;95.90;;;;;;5093438;28;20170;-79
2023/03/05 10:15:21;;;;;;;14.63;9.17;;;8.00;96.00;;;;;;5074404;28;20191;-80
2023/03/05 10:18:07;;;;;;;14.10;9.87;;;8.10;96.00;;;;;;5073289;28;20162;-74
2023/03/05 10:20:45;;;;;;;14.33;9.97;;;8.20;95.60;;;;;;5073439;28;20166;-77
2023/03/05 10:23:23;;;;;;;14.90;9.90;;;8.30;95.70;;;;;;5071960;28;20214;-77
2023/03/05 10:26:12;;;;;;;15.07;9.33;;;8.40;95.40;;;;;;5072449;28;20187;-74
2023/03/05 10:28:53;;;;;;;15.50;10.10;;;8.50;95.20;;;;;;5064208;28;20186;-75
2023/03/05 10:31:34;;;;;;;12.47;9.10;;;8.40;95.10;;;;;;5073434;28;20669;-78
2023/03/05 10:34:14;;;;;;;13.83;9.17;;;8.40;95.20;;;;;;5071322;28;20206;-72
2023/03/05 10:37:01;;;;;;;13.33;8.63;;;8.40;95.40;;;;;;5072582;28;20252;-78
2023/03/05 10:39:48;;;;;;;13.90;9.47;;;8.40;95.20;;;;;;5080066;28;20161;-72
2023/03/05 10:42:36;;;;;;;13.40;8.83;;;8.40;95.30;;;;;;5092978;28;20689;-77
2023/03/05 10:45:38;;;;;;;12.80;9.00;;;8.50;95.30;;;;;;5092564;28;20185;-72
2023/03/05 10:48:26;;;;;;;14.23;9.30;;;8.40;95.20;;;;;;5089522;28;20632;-76
2023/03/05 10:50:58;;;;;;;13.17;8.77;;;8.40;95.40;;;;;;5091351;28;20201;-82
2023/03/05 10:53:33;;;;;;;12.13;9.17;;;8.50;95.10;;;;;;5093005;28;20171;-77
2023/03/05 10:56:04;;;;;;;15.50;9.53;;;8.60;94.90;;;;;;5091315;28;20503;-78
2023/03/05 10:58:30;;;;;;;13.37;8.93;;;8.60;95.10;;;;;;5092773;28;20173;-76
2023/03/05 11:01:17;;;;;;;14.77;9.63;;;8.50;95.40;;;;;;5092896;28;20192;-76
2023/03/05 11:03:51;;;;;;;13.77;9.17;;;8.60;95.70;;;;;;5092617;28;20201;-73
2023/03/05 11:06:37;;;;;;;11.00;8.43;;;8.60;95.30;;;;;;5092568;28;20166;-75
2023/03/05 11:09:28;;;;;;;13.07;8.80;;;8.60;95.20;;;;;;5092671;28;20162;-75
2023/03/05 11:12:17;;;;;;;12.87;8.70;;;8.70;94.50;;;;;;5093862;28;20209;-78
2023/03/05 11:15:00;;;;;;;13.20;9.27;;;8.70;94.80;;;;;;5076720;28;20236;-75
2023/03/05 11:17:42;;;;;;;14.00;9.50;;;8.80;95.40;;;;;;5071865;28;20183;-76
2023/03/05 11:20:25;;;;;;;17.90;9.70;;;8.90;95.40;;;;;;5077632;28;20170;-76
2023/03/05 11:23:02;;;;;;;13.27;9.48;;;9.00;95.60;;;;;;5080073;28;20371;-75
2023/03/05 11:25:28;;;;;;;12.43;8.73;;;9.00;94.90;;;;;;5080955;28;20171;-75
2023/03/05 11:27:57;;;;;;;11.43;8.47;;;9.20;93.90;;;;;;5073681;28;20544;-80
2023/03/05 11:30:34;;;;;;;17.07;10.63;;;9.10;92.60;;;;;;5072955;28;20192;-73
2023/03/05 11:33:13;;;;;;;14.03;9.60;;;9.00;92.50;;;;;;5072134;28;20205;-77
2023/03/05 11:35:41;;;;;;;13.73;9.33;;;9.00;92.60;;;;;;5072797;28;20184;-74
2023/03/05 11:38:15;;;;;;;17.27;11.40;;;9.00;93.10;;;;;;5073549;28;20173;-78
2023/03/05 11:40:41;;;;;;;17.40;10.30;;;9.10;93.10;;;;;;5087994;28;20170;-73
2023/03/05 11:43:15;;;;;;;12.47;9.03;;;9.10;93.10;;;;;;5090808;28;20302;-73
2023/03/05 11:45:42;;;;;;;12.83;9.13;;;9.10;93.20;;;;;;5075784;28;20199;-74
2023/03/05 11:48:33;;;;;;;13.57;9.40;;;9.40;93.10;;;;;;5071243;28;20270;-80
2023/03/05 11:51:13;;;;;;;13.00;8.60;;;9.60;93.20;;;;;;5072049;28;20164;-78
2023/03/05 11:53:41;;;;;;;13.70;9.40;;;9.80;92.30;;;;;;5070939;28;20182;-76
2023/03/05 11:56:41;;;;;;;14.87;9.83;;;10.00;91.50;;;;;;5071688;28;20172;-77
2023/03/05 11:59:33;;;;;;;11.27;8.27;;;10.20;91.50;;;;;;5009072;28;20192;-75
2023/03/05 12:01:59;;;;;;;12.23;8.70;;;10.20;91.20;;;;;;5009699;28;20257;-74
2023/03/05 12:04:25;;;;;;;13.70;9.90;;;10.30;91.00;;;;;;5009405;28;20674;-73
2023/03/05 12:06:59;;;;;;;13.63;8.90;;;10.20;90.50;;;;;;5009358;28;20178;-77
2023/03/05 12:09:46;;;;;;;11.90;9.00;;;10.30;90.20;;;;;;5008207;28;20195;-76
2023/03/05 12:12:18;;;;;;;15.90;9.93;;;10.30;89.60;;;;;;5009856;28;20264;-76
2023/03/05 12:14:55;;;;;;;13.87;8.63;;;10.50;89.50;;;;;;5008931;28;20652;-73
2023/03/05 12:17:30;;;;;;;11.77;8.13;;;10.70;90.00;;;;;;5004730;28;20247;-77
2023/03/05 12:20:15;;;;;;;10.63;8.20;;;10.80;89.00;;;;;;5009401;28;20692;-76
2023/03/05 12:22:42;;;;;;;11.90;8.40;;;11.00;88.70;;;;;;5009914;28;20240;-75
2023/03/05 12:25:30;;;;;;;12.07;8.83;;;11.00;88.00;;;;;;5009945;28;20191;-76
2023/03/05 12:27:56;;;;;;;10.37;8.07;;;10.90;87.00;;;;;;5008907;28;20188;-75
2023/03/05 12:30:48;;;;;;;15.70;9.60;;;10.80;86.40;;;;;;5009077;28;20168;-78
2023/03/05 12:33:32;;;;;;;14.13;8.77;;;10.90;87.20;;;;;;5010047;28;20206;-73
2023/03/05 12:36:16;;;;;;;11.07;8.93;;;10.80;87.00;;;;;;5072238;28;20176;-74
2023/03/05 12:38:45;;;;;;;12.10;8.43;;;10.70;87.70;;;;;;5070049;28;20230;-73
2023/03/05 12:41:23;;;;;;;11.23;8.43;;;10.50;87.70;;;;;;5071855;28;20567;-72
2023/03/05 12:44:06;;;;;;;11.10;8.23;;;10.30;88.10;;;;;;5071653;28;20231;-77
2023/03/05 12:46:37;;;;;;;11.60;8.03;;;10.20;88.20;;;;;;5071614;28;20214;-74
2023/03/05 12:49:27;;;;;;;12.73;8.30;;;10.10;87.70;;;;;;5070894;28;20231;-73
2023/03/05 12:52:00;;;;;;;14.47;9.30;;;10.00;88.70;;;;;;5070061;28;20190;-73
2023/03/05 12:54:40;;;;;;;11.70;7.93;;;10.00;87.60;;;;;;5071479;28;20200;-74